Terminal Aerodrome Forecast
Issued by NWS

Home | Current Version | Previous Version | Text Only | Print | Product List | Glossary On
Versions: 1 2 3 4 5 6 7 8 9 10 11 12 13 14 15 16
000
FTUS46 KMFR 250100 AAA
TAFRBG
TAF AMD
KRBG 250126Z 2501/2524 VRB05KT P6SM VCSH BKN050 OVC070
     FM250200 VRB03KT P6SM VCSH SCT020 OVC035
     FM250600 00000KT P6SM -SHRA OVC030
     FM252100 30005KT P6SM VCSH BKN040=

USA.gov is the U.S. government's official web portal to all federal, state and local government web resources and services.